sensor_id;sensor_type;location;lat;lon;timestamp;temperature;humidity
3850;DHT22;1940;51.052;13.678;2024-02-26T00:02:17;3.70;89.50
3850;DHT22;1940;51.052;13.678;2024-02-26T00:04:43;3.70;89.60
3850;DHT22;1940;51.052;13.678;2024-02-26T00:07:08;3.70;89.50
3850;DHT22;1940;51.052;13.678;2024-02-26T00:09:34;3.70;89.60
3850;DHT22;1940;51.052;13.678;2024-02-26T00:12:03;3.70;89.50
3850;DHT22;1940;51.052;13.678;2024-02-26T00:14:29;3.60;89.50
3850;DHT22;1940;51.052;13.678;2024-02-26T00:16:55;3.60;89.50
3850;DHT22;1940;51.052;13.678;2024-02-26T00:19:20;3.60;89.50
3850;DHT22;1940;51.052;13.678;2024-02-26T00:21:46;3.60;89.70
3850;DHT22;1940;51.052;13.678;2024-02-26T00:24:11;3.60;90.00
3850;DHT22;1940;51.052;13.678;2024-02-26T00:26:37;3.60;89.80
3850;DHT22;1940;51.052;13.678;2024-02-26T00:29:02;3.60;89.80
3850;DHT22;1940;51.052;13.678;2024-02-26T00:31:28;3.60;90.10
3850;DHT22;1940;51.052;13.678;2024-02-26T00:33:53;3.60;90.80
3850;DHT22;1940;51.052;13.678;2024-02-26T00:36:19;3.60;90.90
3850;DHT22;1940;51.052;13.678;2024-02-26T00:38:44;3.60;91.00
3850;DHT22;1940;51.052;13.678;2024-02-26T00:41:19;3.60;91.40
3850;DHT22;1940;51.052;13.678;2024-02-26T00:43:45;3.60;91.80
3850;DHT22;1940;51.052;13.678;2024-02-26T00:46:10;3.60;91.90
3850;DHT22;1940;51.052;13.678;2024-02-26T00:48:36;3.60;92.10
3850;DHT22;1940;51.052;13.678;2024-02-26T00:51:02;3.60;92.00
3850;DHT22;1940;51.052;13.678;2024-02-26T00:53:30;3.70;92.10
3850;DHT22;1940;51.052;13.678;2024-02-26T00:55:56;3.70;92.00
3850;DHT22;1940;51.052;13.678;2024-02-26T00:58:21;3.70;92.10
3850;DHT22;1940;51.052;13.678;2024-02-26T01:00:47;3.60;92.00
3850;DHT22;1940;51.052;13.678;2024-02-26T01:03:12;3.60;92.00
3850;DHT22;1940;51.052;13.678;2024-02-26T01:05:38;3.60;92.20
3850;DHT22;1940;51.052;13.678;2024-02-26T01:08:04;3.60;92.40
3850;DHT22;1940;51.052;13.678;2024-02-26T01:10:29;3.60;92.40
3850;DHT22;1940;51.052;13.678;2024-02-26T01:12:55;3.60;92.40
3850;DHT22;1940;51.052;13.678;2024-02-26T01:15:20;3.60;92.40
3850;DHT22;1940;51.052;13.678;2024-02-26T01:17:49;3.60;92.50
3850;DHT22;1940;51.052;13.678;2024-02-26T01:20:15;3.60;92.30
3850;DHT22;1940;51.052;13.678;2024-02-26T01:22:40;3.60;91.90
3850;DHT22;1940;51.052;13.678;2024-02-26T01:25:06;3.60;91.70
3850;DHT22;1940;51.052;13.678;2024-02-26T01:27:32;3.60;91.50
3850;DHT22;1940;51.052;13.678;2024-02-26T01:29:58;3.60;91.50
3850;DHT22;1940;51.052;13.678;2024-02-26T01:32:23;3.50;91.40
3850;DHT22;1940;51.052;13.678;2024-02-26T01:34:49;3.40;91.40
3850;DHT22;1940;51.052;13.678;2024-02-26T01:37:14;3.40;91.50
3850;DHT22;1940;51.052;13.678;2024-02-26T01:39:40;3.50;91.30
3850;DHT22;1940;51.052;13.678;2024-02-26T01:42:07;3.50;90.90
3850;DHT22;1940;51.052;13.678;2024-02-26T01:44:32;3.40;90.90
3850;DHT22;1940;51.052;13.678;2024-02-26T01:46:58;3.50;90.90
3850;DHT22;1940;51.052;13.678;2024-02-26T01:49:24;3.50;90.80
3850;DHT22;1940;51.052;13.678;2024-02-26T01:51:50;3.40;90.60
3850;DHT22;1940;51.052;13.678;2024-02-26T01:54:15;3.40;90.60
3850;DHT22;1940;51.052;13.678;2024-02-26T01:56:41;3.40;90.60
3850;DHT22;1940;51.052;13.678;2024-02-26T01:59:08;3.30;90.80
3850;DHT22;1940;51.052;13.678;2024-02-26T02:01:34;3.30;90.90
3850;DHT22;1940;51.052;13.678;2024-02-26T02:04:00;3.30;91.00
3850;DHT22;1940;51.052;13.678;2024-02-26T02:06:26;3.30;91.00
3850;DHT22;1940;51.052;13.678;2024-02-26T02:08:54;3.30;91.00
3850;DHT22;1940;51.052;13.678;2024-02-26T02:11:19;3.20;90.80
3850;DHT22;1940;51.052;13.678;2024-02-26T02:13:45;3.20;90.80
3850;DHT22;1940;51.052;13.678;2024-02-26T02:16:11;3.20;90.70
3850;DHT22;1940;51.052;13.678;2024-02-26T02:18:36;3.10;90.70
3850;DHT22;1940;51.052;13.678;2024-02-26T02:21:02;3.10;90.80
3850;DHT22;1940;51.052;13.678;2024-02-26T02:23:28;3.10;91.10
3850;DHT22;1940;51.052;13.678;2024-02-26T02:25:54;3.10;91.50
3850;DHT22;1940;51.052;13.678;2024-02-26T02:28:23;3.10;91.50
3850;DHT22;1940;51.052;13.678;2024-02-26T02:30:50;3.10;91.50
3850;DHT22;1940;51.052;13.678;2024-02-26T02:33:16;3.10;91.40
3850;DHT22;1940;51.052;13.678;2024-02-26T02:35:41;3.10;91.40
3850;DHT22;1940;51.052;13.678;2024-02-26T02:38:07;3.10;91.30
3850;DHT22;1940;51.052;13.678;2024-02-26T02:40:32;3.10;91.30
3850;DHT22;1940;51.052;13.678;2024-02-26T02:42:58;3.10;91.30
3850;DHT22;1940;51.052;13.678;2024-02-26T02:45:24;3.00;91.30
3850;DHT22;1940;51.052;13.678;2024-02-26T02:47:49;3.00;91.30
3850;DHT22;1940;51.052;13.678;2024-02-26T02:50:15;3.00;91.30
3850;DHT22;1940;51.052;13.678;2024-02-26T02:52:40;3.00;91.30
3850;DHT22;1940;51.052;13.678;2024-02-26T02:55:06;3.00;91.30
3850;DHT22;1940;51.052;13.678;2024-02-26T02:57:32;2.90;91.50
3850;DHT22;1940;51.052;13.678;2024-02-26T02:59:58;2.90;91.50
3850;DHT22;1940;51.052;13.678;2024-02-26T03:02:23;2.90;91.40
3850;DHT22;1940;51.052;13.678;2024-02-26T03:04:50;2.90;91.50
3850;DHT22;1940;51.052;13.678;2024-02-26T03:07:15;2.90;91.40
3850;DHT22;1940;51.052;13.678;2024-02-26T03:09:41;2.90;91.60
3850;DHT22;1940;51.052;13.678;2024-02-26T03:12:06;2.90;91.50
3850;DHT22;1940;51.052;13.678;2024-02-26T03:14:32;2.90;91.40
3850;DHT22;1940;51.052;13.678;2024-02-26T03:16:57;2.90;91.50
3850;DHT22;1940;51.052;13.678;2024-02-26T03:19:23;2.90;91.60
3850;DHT22;1940;51.052;13.678;2024-02-26T03:21:49;2.90;91.50
3850;DHT22;1940;51.052;13.678;2024-02-26T03:24:14;2.90;91.50
3850;DHT22;1940;51.052;13.678;2024-02-26T03:26:40;2.90;91.50
3850;DHT22;1940;51.052;13.678;2024-02-26T03:29:05;2.90;91.50
3850;DHT22;1940;51.052;13.678;2024-02-26T03:31:31;2.90;91.50
3850;DHT22;1940;51.052;13.678;2024-02-26T03:33:57;2.90;91.50
3850;DHT22;1940;51.052;13.678;2024-02-26T03:36:22;2.90;91.60
3850;DHT22;1940;51.052;13.678;2024-02-26T03:38:48;2.90;91.60
3850;DHT22;1940;51.052;13.678;2024-02-26T03:41:13;2.90;91.60
3850;DHT22;1940;51.052;13.678;2024-02-26T03:43:39;2.90;91.70
3850;DHT22;1940;51.052;13.678;2024-02-26T03:46:07;2.90;91.70
3850;DHT22;1940;51.052;13.678;2024-02-26T03:48:34;2.90;91.70
3850;DHT22;1940;51.052;13.678;2024-02-26T03:50:59;2.90;91.80
3850;DHT22;1940;51.052;13.678;2024-02-26T03:53:25;2.90;91.90
3850;DHT22;1940;51.052;13.678;2024-02-26T03:55:51;2.90;92.00
3850;DHT22;1940;51.052;13.678;2024-02-26T03:58:18;3.00;92.20
3850;DHT22;1940;51.052;13.678;2024-02-26T04:00:43;2.90;92.20
3850;DHT22;1940;51.052;13.678;2024-02-26T04:03:09;2.90;92.00
3850;DHT22;1940;51.052;13.678;2024-02-26T04:05:35;2.90;91.90
3850;DHT22;1940;51.052;13.678;2024-02-26T04:08:00;2.90;91.90
3850;DHT22;1940;51.052;13.678;2024-02-26T04:10:26;2.80;92.00
3850;DHT22;1940;51.052;13.678;2024-02-26T04:12:51;2.90;92.40
3850;DHT22;1940;51.052;13.678;2024-02-26T04:15:17;2.90;92.60
3850;DHT22;1940;51.052;13.678;2024-02-26T04:17:42;2.90;92.40
3850;DHT22;1940;51.052;13.678;2024-02-26T04:20:12;2.90;92.30
3850;DHT22;1940;51.052;13.678;2024-02-26T04:22:38;2.80;92.40
3850;DHT22;1940;51.052;13.678;2024-02-26T04:25:03;2.80;92.60
3850;DHT22;1940;51.052;13.678;2024-02-26T04:27:29;2.80;92.90
3850;DHT22;1940;51.052;13.678;2024-02-26T04:29:54;2.80;92.80
3850;DHT22;1940;51.052;13.678;2024-02-26T04:32:20;2.80;92.50
3850;DHT22;1940;51.052;13.678;2024-02-26T04:34:46;2.80;92.20
3850;DHT22;1940;51.052;13.678;2024-02-26T04:37:11;2.80;92.10
3850;DHT22;1940;51.052;13.678;2024-02-26T04:39:36;2.70;92.00
3850;DHT22;1940;51.052;13.678;2024-02-26T04:42:02;2.80;92.30
3850;DHT22;1940;51.052;13.678;2024-02-26T04:44:29;2.80;92.20
3850;DHT22;1940;51.052;13.678;2024-02-26T04:46:55;2.80;92.20
3850;DHT22;1940;51.052;13.678;2024-02-26T04:49:20;2.80;92.00
3850;DHT22;1940;51.052;13.678;2024-02-26T04:51:46;2.80;92.00
3850;DHT22;1940;51.052;13.678;2024-02-26T04:54:13;2.70;92.00
3850;DHT22;1940;51.052;13.678;2024-02-26T04:56:39;2.70;91.90
3850;DHT22;1940;51.052;13.678;2024-02-26T04:59:04;2.70;91.90
3850;DHT22;1940;51.052;13.678;2024-02-26T05:01:29;2.70;92.10
3850;DHT22;1940;51.052;13.678;2024-02-26T05:03:55;2.70;92.30
3850;DHT22;1940;51.052;13.678;2024-02-26T05:06:20;2.60;92.20
3850;DHT22;1940;51.052;13.678;2024-02-26T05:08:46;2.60;92.00
3850;DHT22;1940;51.052;13.678;2024-02-26T05:11:11;2.60;92.00
3850;DHT22;1940;51.052;13.678;2024-02-26T05:13:37;2.60;92.00
3850;DHT22;1940;51.052;13.678;2024-02-26T05:16:03;2.60;92.00
3850;DHT22;1940;51.052;13.678;2024-02-26T05:18:28;2.60;92.10
3850;DHT22;1940;51.052;13.678;2024-02-26T05:20:54;2.60;92.20
3850;DHT22;1940;51.052;13.678;2024-02-26T05:23:19;2.60;92.30
3850;DHT22;1940;51.052;13.678;2024-02-26T05:25:45;2.60;92.40
3850;DHT22;1940;51.052;13.678;2024-02-26T05:28:12;2.60;92.20
3850;DHT22;1940;51.052;13.678;2024-02-26T05:30:38;2.60;92.00
3850;DHT22;1940;51.052;13.678;2024-02-26T05:33:05;2.60;92.00
3850;DHT22;1940;51.052;13.678;2024-02-26T05:35:30;2.50;91.80
3850;DHT22;1940;51.052;13.678;2024-02-26T05:37:56;2.50;91.80
3850;DHT22;1940;51.052;13.678;2024-02-26T05:40:21;2.40;91.80
3850;DHT22;1940;51.052;13.678;2024-02-26T05:42:47;2.40;91.90
3850;DHT22;1940;51.052;13.678;2024-02-26T05:45:14;2.40;91.90
3850;DHT22;1940;51.052;13.678;2024-02-26T05:47:40;2.40;91.90
3850;DHT22;1940;51.052;13.678;2024-02-26T05:50:11;2.40;92.20
3850;DHT22;1940;51.052;13.678;2024-02-26T05:52:37;2.50;92.70
3850;DHT22;1940;51.052;13.678;2024-02-26T05:55:07;2.50;93.00
3850;DHT22;1940;51.052;13.678;2024-02-26T05:57:34;2.60;93.30
3850;DHT22;1940;51.052;13.678;2024-02-26T05:59:59;2.60;93.50
3850;DHT22;1940;51.052;13.678;2024-02-26T06:02:31;2.70;93.80
3850;DHT22;1940;51.052;13.678;2024-02-26T06:04:57;2.70;94.10
3850;DHT22;1940;51.052;13.678;2024-02-26T06:07:23;2.80;94.20
3850;DHT22;1940;51.052;13.678;2024-02-26T06:09:48;2.80;94.10
3850;DHT22;1940;51.052;13.678;2024-02-26T06:12:14;2.80;94.30
3850;DHT22;1940;51.052;13.678;2024-02-26T06:14:39;2.90;94.00
3850;DHT22;1940;51.052;13.678;2024-02-26T06:17:05;2.90;93.50
3850;DHT22;1940;51.052;13.678;2024-02-26T06:19:30;3.00;93.50
3850;DHT22;1940;51.052;13.678;2024-02-26T06:21:56;3.10;93.30
3850;DHT22;1940;51.052;13.678;2024-02-26T06:24:21;3.10;93.10
3850;DHT22;1940;51.052;13.678;2024-02-26T06:26:47;3.20;92.80
3850;DHT22;1940;51.052;13.678;2024-02-26T06:29:13;3.20;92.50
3850;DHT22;1940;51.052;13.678;2024-02-26T06:31:38;3.30;92.40
3850;DHT22;1940;51.052;13.678;2024-02-26T06:34:04;3.40;92.30
3850;DHT22;1940;51.052;13.678;2024-02-26T06:36:30;3.30;92.00
3850;DHT22;1940;51.052;13.678;2024-02-26T06:38:57;3.40;92.10
3850;DHT22;1940;51.052;13.678;2024-02-26T06:41:22;3.50;92.20
3850;DHT22;1940;51.052;13.678;2024-02-26T06:43:53;3.60;92.10
3850;DHT22;1940;51.052;13.678;2024-02-26T06:46:18;3.70;92.00
3850;DHT22;1940;51.052;13.678;2024-02-26T06:48:44;3.90;91.70
3850;DHT22;1940;51.052;13.678;2024-02-26T06:51:09;4.00;91.60
3850;DHT22;1940;51.052;13.678;2024-02-26T06:53:35;4.20;91.20
3850;DHT22;1940;51.052;13.678;2024-02-26T06:56:00;4.20;91.00
3850;DHT22;1940;51.052;13.678;2024-02-26T06:58:26;4.40;90.60
3850;DHT22;1940;51.052;13.678;2024-02-26T07:00:51;4.50;90.20
3850;DHT22;1940;51.052;13.678;2024-02-26T07:03:17;4.60;89.80
3850;DHT22;1940;51.052;13.678;2024-02-26T07:05:42;4.70;89.20
3850;DHT22;1940;51.052;13.678;2024-02-26T07:08:10;4.70;88.80
3850;DHT22;1940;51.052;13.678;2024-02-26T07:10:35;4.90;88.70
3850;DHT22;1940;51.052;13.678;2024-02-26T07:13:01;5.00;88.40
3850;DHT22;1940;51.052;13.678;2024-02-26T07:15:26;5.20;87.50
3850;DHT22;1940;51.052;13.678;2024-02-26T07:17:52;5.40;87.20
3850;DHT22;1940;51.052;13.678;2024-02-26T07:20:17;5.60;86.70
3850;DHT22;1940;51.052;13.678;2024-02-26T07:22:43;5.80;86.40
3850;DHT22;1940;51.052;13.678;2024-02-26T07:25:09;6.00;86.00
3850;DHT22;1940;51.052;13.678;2024-02-26T07:27:38;6.10;85.30
3850;DHT22;1940;51.052;13.678;2024-02-26T07:30:04;6.20;84.80
3850;DHT22;1940;51.052;13.678;2024-02-26T07:32:30;6.10;84.20
3850;DHT22;1940;51.052;13.678;2024-02-26T07:34:55;6.10;83.70
3850;DHT22;1940;51.052;13.678;2024-02-26T07:37:21;5.90;84.10
3850;DHT22;1940;51.052;13.678;2024-02-26T07:39:46;6.10;84.30
3850;DHT22;1940;51.052;13.678;2024-02-26T07:42:12;6.30;84.00
3850;DHT22;1940;51.052;13.678;2024-02-26T07:44:37;6.40;83.80
3850;DHT22;1940;51.052;13.678;2024-02-26T07:47:03;6.70;83.30
3850;DHT22;1940;51.052;13.678;2024-02-26T07:49:29;7.00;82.30
3850;DHT22;1940;51.052;13.678;2024-02-26T07:51:54;7.30;82.20
3850;DHT22;1940;51.052;13.678;2024-02-26T07:54:23;7.90;81.40
3850;DHT22;1940;51.052;13.678;2024-02-26T07:56:48;9.00;79.80
3850;DHT22;1940;51.052;13.678;2024-02-26T07:59:14;10.00;76.80
3850;DHT22;1940;51.052;13.678;2024-02-26T08:01:39;11.00;74.10
3850;DHT22;1940;51.052;13.678;2024-02-26T08:04:06;11.80;70.20
3850;DHT22;1940;51.052;13.678;2024-02-26T08:06:32;12.60;68.30
3850;DHT22;1940;51.052;13.678;2024-02-26T08:08:57;13.00;66.60
3850;DHT22;1940;51.052;13.678;2024-02-26T08:11:23;13.70;65.50
3850;DHT22;1940;51.052;13.678;2024-02-26T08:13:49;14.50;63.00
3850;DHT22;1940;51.052;13.678;2024-02-26T08:16:15;15.10;61.70
3850;DHT22;1940;51.052;13.678;2024-02-26T08:18:40;15.10;60.80
3850;DHT22;1940;51.052;13.678;2024-02-26T08:21:06;15.10;60.80
3850;DHT22;1940;51.052;13.678;2024-02-26T08:23:32;15.60;60.10
3850;DHT22;1940;51.052;13.678;2024-02-26T08:25:57;16.10;58.80
3850;DHT22;1940;51.052;13.678;2024-02-26T08:28:22;16.30;58.40
3850;DHT22;1940;51.052;13.678;2024-02-26T08:30:48;16.70;57.10
3850;DHT22;1940;51.052;13.678;2024-02-26T08:33:14;16.70;57.30
3850;DHT22;1940;51.052;13.678;2024-02-26T08:35:39;16.70;57.50
3850;DHT22;1940;51.052;13.678;2024-02-26T08:38:05;17.10;56.90
3850;DHT22;1940;51.052;13.678;2024-02-26T08:40:30;17.50;55.80
3850;DHT22;1940;51.052;13.678;2024-02-26T08:42:56;17.30;56.10
3850;DHT22;1940;51.052;13.678;2024-02-26T08:45:21;16.90;56.80
3850;DHT22;1940;51.052;13.678;2024-02-26T08:47:47;16.20;58.10
3850;DHT22;1940;51.052;13.678;2024-02-26T08:50:14;16.20;58.60
3850;DHT22;1940;51.052;13.678;2024-02-26T08:52:39;15.60;59.60
3850;DHT22;1940;51.052;13.678;2024-02-26T08:55:06;15.50;60.00
3850;DHT22;1940;51.052;13.678;2024-02-26T08:57:34;15.30;60.70
3850;DHT22;1940;51.052;13.678;2024-02-26T09:00:00;15.70;60.10
3850;DHT22;1940;51.052;13.678;2024-02-26T09:02:26;16.20;59.00
3850;DHT22;1940;51.052;13.678;2024-02-26T09:04:51;16.10;58.70
3850;DHT22;1940;51.052;13.678;2024-02-26T09:07:19;16.00;59.30
3850;DHT22;1940;51.052;13.678;2024-02-26T09:09:45;15.80;59.90
3850;DHT22;1940;51.052;13.678;2024-02-26T09:12:10;16.00;59.60
3850;DHT22;1940;51.052;13.678;2024-02-26T09:14:36;16.10;59.70
3850;DHT22;1940;51.052;13.678;2024-02-26T09:17:01;16.20;59.30
3850;DHT22;1940;51.052;13.678;2024-02-26T09:19:27;16.40;59.70
3850;DHT22;1940;51.052;13.678;2024-02-26T09:21:53;17.00;58.00
3850;DHT22;1940;51.052;13.678;2024-02-26T09:24:23;16.80;58.30
3850;DHT22;1940;51.052;13.678;2024-02-26T09:26:48;16.90;58.60
3850;DHT22;1940;51.052;13.678;2024-02-26T09:29:14;17.20;58.00
3850;DHT22;1940;51.052;13.678;2024-02-26T09:31:39;17.20;57.60
3850;DHT22;1940;51.052;13.678;2024-02-26T09:34:07;17.00;57.80
3850;DHT22;1940;51.052;13.678;2024-02-26T09:36:33;16.80;58.50
3850;DHT22;1940;51.052;13.678;2024-02-26T09:38:58;16.20;59.50
3850;DHT22;1940;51.052;13.678;2024-02-26T09:41:28;16.10;59.90
3850;DHT22;1940;51.052;13.678;2024-02-26T09:43:56;16.00;60.20
3850;DHT22;1940;51.052;13.678;2024-02-26T09:46:25;16.10;60.60
3850;DHT22;1940;51.052;13.678;2024-02-26T09:48:51;16.60;59.60
3850;DHT22;1940;51.052;13.678;2024-02-26T09:51:17;16.90;58.70
3850;DHT22;1940;51.052;13.678;2024-02-26T09:53:44;17.00;58.50
3850;DHT22;1940;51.052;13.678;2024-02-26T09:56:12;17.10;58.40
3850;DHT22;1940;51.052;13.678;2024-02-26T09:58:39;17.60;57.90
3850;DHT22;1940;51.052;13.678;2024-02-26T10:01:11;18.50;56.30
3850;DHT22;1940;51.052;13.678;2024-02-26T10:03:39;19.20;55.20
3850;DHT22;1940;51.052;13.678;2024-02-26T10:06:08;19.80;53.40
3850;DHT22;1940;51.052;13.678;2024-02-26T10:08:37;19.90;52.80
3850;DHT22;1940;51.052;13.678;2024-02-26T10:11:07;19.70;53.60
3850;DHT22;1940;51.052;13.678;2024-02-26T10:13:34;19.70;53.10
3850;DHT22;1940;51.052;13.678;2024-02-26T10:16:00;19.10;54.10
3850;DHT22;1940;51.052;13.678;2024-02-26T10:18:51;18.80;54.50
3850;DHT22;1940;51.052;13.678;2024-02-26T10:21:18;18.70;55.30
3850;DHT22;1940;51.052;13.678;2024-02-26T10:23:44;18.70;55.30
3850;DHT22;1940;51.052;13.678;2024-02-26T10:26:11;18.50;54.60
3850;DHT22;1940;51.052;13.678;2024-02-26T10:28:38;18.30;55.20
3850;DHT22;1940;51.052;13.678;2024-02-26T10:31:04;18.40;55.40
3850;DHT22;1940;51.052;13.678;2024-02-26T10:33:31;18.80;55.00
3850;DHT22;1940;51.052;13.678;2024-02-26T10:35:58;19.00;54.40
3850;DHT22;1940;51.052;13.678;2024-02-26T10:38:24;18.40;55.20
3850;DHT22;1940;51.052;13.678;2024-02-26T10:40:49;17.80;56.00
3850;DHT22;1940;51.052;13.678;2024-02-26T10:43:15;17.30;57.30
3850;DHT22;1940;51.052;13.678;2024-02-26T10:45:42;17.50;57.70
3850;DHT22;1940;51.052;13.678;2024-02-26T10:48:13;17.80;56.50
3850;DHT22;1940;51.052;13.678;2024-02-26T10:50:39;17.90;56.10
3850;DHT22;1940;51.052;13.678;2024-02-26T10:53:13;18.00;56.10
3850;DHT22;1940;51.052;13.678;2024-02-26T10:55:42;18.20;55.50
3850;DHT22;1940;51.052;13.678;2024-02-26T10:58:09;18.10;56.20
3850;DHT22;1940;51.052;13.678;2024-02-26T11:00:36;18.30;55.80
3850;DHT22;1940;51.052;13.678;2024-02-26T11:03:04;18.50;55.40
3850;DHT22;1940;51.052;13.678;2024-02-26T11:05:31;18.50;55.10
3850;DHT22;1940;51.052;13.678;2024-02-26T11:07:59;18.30;55.70
3850;DHT22;1940;51.052;13.678;2024-02-26T11:10:27;18.30;55.90
3850;DHT22;1940;51.052;13.678;2024-02-26T11:12:54;18.30;55.50
3850;DHT22;1940;51.052;13.678;2024-02-26T11:15:21;18.10;55.70
3850;DHT22;1940;51.052;13.678;2024-02-26T11:17:47;17.30;57.20
3850;DHT22;1940;51.052;13.678;2024-02-26T11:20:14;16.70;58.10
3850;DHT22;1940;51.052;13.678;2024-02-26T11:22:40;15.90;59.90
3850;DHT22;1940;51.052;13.678;2024-02-26T11:25:06;15.60;60.60
3850;DHT22;1940;51.052;13.678;2024-02-26T11:27:37;15.40;61.50
3850;DHT22;1940;51.052;13.678;2024-02-26T11:30:05;15.10;61.50
3850;DHT22;1940;51.052;13.678;2024-02-26T11:32:34;14.80;62.80
3850;DHT22;1940;51.052;13.678;2024-02-26T11:35:00;14.50;63.20
3850;DHT22;1940;51.052;13.678;2024-02-26T11:37:26;14.50;63.50
3850;DHT22;1940;51.052;13.678;2024-02-26T11:39:52;14.40;63.90
3850;DHT22;1940;51.052;13.678;2024-02-26T11:42:23;14.50;63.90
3850;DHT22;1940;51.052;13.678;2024-02-26T11:44:48;14.70;63.50
3850;DHT22;1940;51.052;13.678;2024-02-26T11:47:18;14.90;63.00
3850;DHT22;1940;51.052;13.678;2024-02-26T11:49:44;15.10;62.40
3850;DHT22;1940;51.052;13.678;2024-02-26T11:52:10;15.20;62.20
3850;DHT22;1940;51.052;13.678;2024-02-26T11:54:50;15.50;61.60
3850;DHT22;1940;51.052;13.678;2024-02-26T11:57:26;15.80;61.10
3850;DHT22;1940;51.052;13.678;2024-02-26T11:59:53;15.90;60.80
3850;DHT22;1940;51.052;13.678;2024-02-26T12:02:43;15.90;60.40
3850;DHT22;1940;51.052;13.678;2024-02-26T12:05:17;15.40;61.00
3850;DHT22;1940;51.052;13.678;2024-02-26T12:08:09;15.10;62.00
3850;DHT22;1940;51.052;13.678;2024-02-26T12:10:39;14.50;63.30
3850;DHT22;1940;51.052;13.678;2024-02-26T12:13:12;14.20;63.70
3850;DHT22;1940;51.052;13.678;2024-02-26T12:15:45;13.60;65.20
3850;DHT22;1940;51.052;13.678;2024-02-26T12:18:15;13.10;66.30
3850;DHT22;1940;51.052;13.678;2024-02-26T12:20:42;12.70;67.70
3850;DHT22;1940;51.052;13.678;2024-02-26T12:23:14;12.60;68.50
3850;DHT22;1940;51.052;13.678;2024-02-26T12:25:40;12.70;68.50
3850;DHT22;1940;51.052;13.678;2024-02-26T12:28:07;12.70;67.90
3850;DHT22;1940;51.052;13.678;2024-02-26T12:30:32;12.70;68.00
3850;DHT22;1940;51.052;13.678;2024-02-26T12:32:58;12.60;68.00
3850;DHT22;1940;51.052;13.678;2024-02-26T12:35:26;12.30;68.30
3850;DHT22;1940;51.052;13.678;2024-02-26T12:37:53;12.10;68.70
3850;DHT22;1940;51.052;13.678;2024-02-26T12:40:19;12.10;69.10
3850;DHT22;1940;51.052;13.678;2024-02-26T12:42:45;11.90;69.50
3850;DHT22;1940;51.052;13.678;2024-02-26T12:45:12;11.90;70.10
3850;DHT22;1940;51.052;13.678;2024-02-26T12:47:44;12.10;69.70
3850;DHT22;1940;51.052;13.678;2024-02-26T12:50:15;12.10;69.70
3850;DHT22;1940;51.052;13.678;2024-02-26T12:52:46;12.20;69.60
3850;DHT22;1940;51.052;13.678;2024-02-26T12:55:18;12.10;69.30
3850;DHT22;1940;51.052;13.678;2024-02-26T12:57:44;12.00;69.60
3850;DHT22;1940;51.052;13.678;2024-02-26T13:00:16;11.90;69.60
3850;DHT22;1940;51.052;13.678;2024-02-26T13:02:42;11.90;70.00
3850;DHT22;1940;51.052;13.678;2024-02-26T13:05:10;11.90;70.00
3850;DHT22;1940;51.052;13.678;2024-02-26T13:07:41;11.70;70.50
3850;DHT22;1940;51.052;13.678;2024-02-26T13:10:07;11.70;70.60
3850;DHT22;1940;51.052;13.678;2024-02-26T13:12:33;11.60;70.70
3850;DHT22;1940;51.052;13.678;2024-02-26T13:15:03;11.80;70.50
3850;DHT22;1940;51.052;13.678;2024-02-26T13:17:32;11.80;70.30
3850;DHT22;1940;51.052;13.678;2024-02-26T13:19:58;11.90;69.90
3850;DHT22;1940;51.052;13.678;2024-02-26T13:22:23;11.90;70.30
3850;DHT22;1940;51.052;13.678;2024-02-26T13:24:56;12.00;69.00
3850;DHT22;1940;51.052;13.678;2024-02-26T13:27:25;12.00;68.90
3850;DHT22;1940;51.052;13.678;2024-02-26T13:30:10;11.90;69.30
3850;DHT22;1940;51.052;13.678;2024-02-26T13:32:38;11.90;69.30
3850;DHT22;1940;51.052;13.678;2024-02-26T13:35:11;11.90;69.40
3850;DHT22;1940;51.052;13.678;2024-02-26T13:37:37;11.90;69.80
3850;DHT22;1940;51.052;13.678;2024-02-26T13:40:10;12.00;70.00
3850;DHT22;1940;51.052;13.678;2024-02-26T13:42:39;12.00;69.70
3850;DHT22;1940;51.052;13.678;2024-02-26T13:45:05;12.10;69.70
3850;DHT22;1940;51.052;13.678;2024-02-26T13:47:35;12.10;69.40
3850;DHT22;1940;51.052;13.678;2024-02-26T13:50:02;12.20;69.30
3850;DHT22;1940;51.052;13.678;2024-02-26T13:52:27;12.20;69.10
3850;DHT22;1940;51.052;13.678;2024-02-26T13:54:53;12.10;69.30
3850;DHT22;1940;51.052;13.678;2024-02-26T13:57:19;12.10;69.50
3850;DHT22;1940;51.052;13.678;2024-02-26T13:59:45;11.90;69.60
3850;DHT22;1940;51.052;13.678;2024-02-26T14:02:10;12.00;69.90
3850;DHT22;1940;51.052;13.678;2024-02-26T14:04:37;11.90;69.70
3850;DHT22;1940;51.052;13.678;2024-02-26T14:07:03;11.90;70.00
3850;DHT22;1940;51.052;13.678;2024-02-26T14:09:29;11.90;69.90
3850;DHT22;1940;51.052;13.678;2024-02-26T14:11:54;12.00;69.60
3850;DHT22;1940;51.052;13.678;2024-02-26T14:14:20;12.00;69.40
3850;DHT22;1940;51.052;13.678;2024-02-26T14:16:45;11.90;69.60
3850;DHT22;1940;51.052;13.678;2024-02-26T14:19:11;11.80;69.70
3850;DHT22;1940;51.052;13.678;2024-02-26T14:21:37;11.80;69.90
3850;DHT22;1940;51.052;13.678;2024-02-26T14:24:02;11.80;69.50
3850;DHT22;1940;51.052;13.678;2024-02-26T14:26:29;11.80;69.80
3850;DHT22;1940;51.052;13.678;2024-02-26T14:28:54;11.80;69.70
3850;DHT22;1940;51.052;13.678;2024-02-26T14:31:23;11.70;69.90
3850;DHT22;1940;51.052;13.678;2024-02-26T14:33:48;11.60;70.10
3850;DHT22;1940;51.052;13.678;2024-02-26T14:36:18;11.70;69.70
3850;DHT22;1940;51.052;13.678;2024-02-26T14:38:43;11.50;70.20
3850;DHT22;1940;51.052;13.678;2024-02-26T14:41:09;11.60;70.40
3850;DHT22;1940;51.052;13.678;2024-02-26T14:43:35;11.70;70.30
3850;DHT22;1940;51.052;13.678;2024-02-26T14:46:02;11.80;70.00
3850;DHT22;1940;51.052;13.678;2024-02-26T14:48:27;11.70;70.10
3850;DHT22;1940;51.052;13.678;2024-02-26T14:50:54;11.60;70.30
3850;DHT22;1940;51.052;13.678;2024-02-26T14:53:20;11.70;70.50
3850;DHT22;1940;51.052;13.678;2024-02-26T14:55:46;11.70;70.50
3850;DHT22;1940;51.052;13.678;2024-02-26T14:58:11;11.70;70.60
3850;DHT22;1940;51.052;13.678;2024-02-26T15:00:38;11.70;70.50
3850;DHT22;1940;51.052;13.678;2024-02-26T15:03:04;11.70;70.40
3850;DHT22;1940;51.052;13.678;2024-02-26T15:05:29;11.80;70.00
3850;DHT22;1940;51.052;13.678;2024-02-26T15:07:55;11.60;70.10
3850;DHT22;1940;51.052;13.678;2024-02-26T15:10:20;11.50;70.50
3850;DHT22;1940;51.052;13.678;2024-02-26T15:12:46;11.50;70.60
3850;DHT22;1940;51.052;13.678;2024-02-26T15:15:12;11.50;70.80
3850;DHT22;1940;51.052;13.678;2024-02-26T15:17:38;11.50;70.70
3850;DHT22;1940;51.052;13.678;2024-02-26T15:20:03;11.40;71.00
3850;DHT22;1940;51.052;13.678;2024-02-26T15:22:31;11.50;70.90
3850;DHT22;1940;51.052;13.678;2024-02-26T15:24:56;11.40;71.10
3850;DHT22;1940;51.052;13.678;2024-02-26T15:27:22;11.50;71.00
3850;DHT22;1940;51.052;13.678;2024-02-26T15:29:47;11.40;71.00
3850;DHT22;1940;51.052;13.678;2024-02-26T15:32:13;11.50;70.90
3850;DHT22;1940;51.052;13.678;2024-02-26T15:34:39;11.50;70.80
3850;DHT22;1940;51.052;13.678;2024-02-26T15:37:04;11.60;70.70
3850;DHT22;1940;51.052;13.678;2024-02-26T15:39:30;11.60;70.70
3850;DHT22;1940;51.052;13.678;2024-02-26T15:41:55;11.70;70.70
3850;DHT22;1940;51.052;13.678;2024-02-26T15:44:22;11.70;70.50
3850;DHT22;1940;51.052;13.678;2024-02-26T15:46:48;11.70;70.70
3850;DHT22;1940;51.052;13.678;2024-02-26T15:49:13;11.70;70.50
3850;DHT22;1940;51.052;13.678;2024-02-26T15:51:39;11.70;70.50